createdAt,value
2017-06-10T00:01:10.499Z,1007.3
2017-06-10T00:03:23.187Z,1007.27
2017-06-10T00:04:03.671Z,1007.27
2017-06-10T00:04:44.153Z,1007.26
2017-06-10T00:05:24.644Z,1007.3
2017-06-10T00:06:05.126Z,1007.34
2017-06-10T00:06:45.620Z,1007.33
2017-06-10T00:07:26.122Z,1007.33
2017-06-10T00:08:07.369Z,1007.34
2017-06-10T00:10:20.092Z,1007.35
2017-06-10T00:11:00.568Z,1007.34
2017-06-10T00:11:41.055Z,1007.31
2017-06-10T00:12:21.528Z,1007.35
2017-06-10T00:13:02.017Z,1007.31
2017-06-10T00:13:42.489Z,1007.35
2017-06-10T00:14:23.877Z,1007.39
2017-06-10T00:15:04.987Z,1007.4
2017-06-10T00:15:45.468Z,1007.35
2017-06-10T00:16:25.933Z,1007.4
2017-06-10T00:17:06.382Z,1007.34
2017-06-10T00:17:46.841Z,1007.33
2017-06-10T00:18:27.330Z,1007.31
2017-06-10T00:19:07.790Z,1007.37
2017-06-10T00:21:20.505Z,1007.36
2017-06-10T00:22:00.988Z,1007.38
2017-06-10T00:22:41.482Z,1007.39
2017-06-10T00:23:21.958Z,1007.37
2017-06-10T00:24:02.417Z,1007.38
2017-06-10T00:24:42.898Z,1007.41
2017-06-10T00:26:40.527Z,1007.38
2017-06-10T00:27:21.020Z,1007.43
2017-06-10T00:28:01.490Z,1007.42
2017-06-10T00:28:41.958Z,1007.44
2017-06-10T00:29:22.448Z,1007.44
2017-06-10T00:30:02.931Z,1007.44
2017-06-10T00:30:43.496Z,1007.45
2017-06-10T00:31:24.404Z,1007.49
2017-06-10T00:32:04.878Z,1007.45
2017-06-10T00:32:45.370Z,1007.47
2017-06-10T00:33:25.865Z,1007.48
2017-06-10T00:34:06.309Z,1007.49
2017-06-10T00:34:46.760Z,1007.46
2017-06-10T00:35:27.219Z,1007.47
2017-06-10T00:36:07.663Z,1007.45
2017-06-10T00:36:48.099Z,1007.45
2017-06-10T00:37:28.527Z,1007.48
2017-06-10T00:38:08.984Z,1007.46
2017-06-10T00:38:49.434Z,1007.45
2017-06-10T00:39:29.884Z,1007.45
2017-06-10T00:40:10.317Z,1007.43
2017-06-10T00:40:50.751Z,1007.44
2017-06-10T00:41:31.193Z,1007.46
2017-06-10T00:42:11.638Z,1007.45
2017-06-10T00:42:52.215Z,1007.45
2017-06-10T00:43:32.740Z,1007.41
2017-06-10T00:46:00.661Z,1007.49
2017-06-10T00:46:41.145Z,1007.5
2017-06-10T00:47:21.598Z,1007.5
2017-06-10T00:48:02.936Z,1007.47
2017-06-10T00:48:43.414Z,1007.46
2017-06-10T00:49:23.859Z,1007.48
2017-06-10T00:50:04.333Z,1007.49
2017-06-10T00:50:44.770Z,1007.48
2017-06-10T00:51:25.228Z,1007.48
2017-06-10T00:52:05.634Z,1007.51
2017-06-10T00:52:46.091Z,1007.53
2017-06-10T00:53:26.590Z,1007.53
2017-06-10T00:55:24.216Z,1007.57
2017-06-10T00:56:04.684Z,1007.56
2017-06-10T00:56:45.169Z,1007.59
2017-06-10T00:57:25.652Z,1007.58
2017-06-10T00:58:06.138Z,1007.53
2017-06-10T00:58:46.609Z,1007.57
2017-06-10T00:59:27.083Z,1007.56
2017-06-10T01:00:07.562Z,1007.55
2017-06-10T01:00:48.043Z,1007.52
2017-06-10T01:01:28.509Z,1007.57
2017-06-10T01:02:08.977Z,1007.58
2017-06-10T01:02:49.441Z,1007.6
2017-06-10T01:04:45.437Z,1007.64
2017-06-10T01:05:25.595Z,1007.59
2017-06-10T01:06:06.056Z,1007.58
2017-06-10T01:06:46.506Z,1007.61
2017-06-10T01:07:26.952Z,1007.6
2017-06-10T01:08:07.422Z,1007.65
2017-06-10T01:08:47.866Z,1007.66
2017-06-10T01:09:28.303Z,1007.66
2017-06-10T01:10:08.762Z,1007.7
2017-06-10T01:10:49.236Z,1007.7
2017-06-10T01:13:07.050Z,1007.71
2017-06-10T01:13:47.520Z,1007.66
2017-06-10T01:14:27.966Z,1007.71
2017-06-10T01:15:08.421Z,1007.66
2017-06-10T01:15:48.877Z,1007.65
2017-06-10T01:16:29.334Z,1007.67
2017-06-10T01:17:09.813Z,1007.66
2017-06-10T01:17:50.289Z,1007.64
2017-06-10T01:18:30.741Z,1007.66
2017-06-10T01:19:11.228Z,1007.66
2017-06-10T01:19:51.721Z,1007.7
2017-06-10T01:20:32.154Z,1007.7
2017-06-10T01:21:12.619Z,1007.74
2017-06-10T01:21:53.086Z,1007.74
2017-06-10T01:22:33.544Z,1007.74
2017-06-10T01:23:14.008Z,1007.8
2017-06-10T01:23:54.488Z,1007.77
2017-06-10T01:24:34.966Z,1007.76
2017-06-10T01:25:15.422Z,1007.79
2017-06-10T01:25:55.885Z,1007.81
2017-06-10T01:26:36.331Z,1007.77
2017-06-10T01:28:33.997Z,1007.74
2017-06-10T01:29:14.494Z,1007.78
2017-06-10T01:29:54.975Z,1007.77
2017-06-10T01:30:35.466Z,1007.76
2017-06-10T01:31:15.945Z,1007.78
2017-06-10T01:31:56.437Z,1007.78
2017-06-10T01:32:36.902Z,1007.78
2017-06-10T01:34:54.712Z,1007.81
2017-06-10T01:35:35.182Z,1007.83
2017-06-10T01:36:15.653Z,1007.84
2017-06-10T01:36:56.136Z,1007.8
2017-06-10T01:37:36.604Z,1007.82
2017-06-10T01:38:17.085Z,1007.8
2017-06-10T01:38:57.562Z,1007.82
2017-06-10T01:39:38.051Z,1007.8
2017-06-10T01:40:18.522Z,1007.78
2017-06-10T01:40:58.988Z,1007.79
2017-06-10T01:41:39.451Z,1007.78
2017-06-10T01:42:19.890Z,1007.79
2017-06-10T01:43:00.341Z,1007.8
2017-06-10T01:43:40.799Z,1007.77
2017-06-10T01:44:21.234Z,1007.78
2017-06-10T01:45:01.677Z,1007.8
2017-06-10T01:45:42.150Z,1007.76
2017-06-10T01:46:22.608Z,1007.77
2017-06-10T01:47:03.078Z,1007.77
2017-06-10T01:47:43.527Z,1007.79
2017-06-10T01:48:23.977Z,1007.8
2017-06-10T01:49:04.450Z,1007.79
2017-06-10T01:49:44.927Z,1007.78
2017-06-10T01:50:25.423Z,1007.81
2017-06-10T01:51:05.908Z,1007.82
2017-06-10T01:51:46.372Z,1007.83
2017-06-10T01:52:26.849Z,1007.81
2017-06-10T01:53:07.316Z,1007.87
2017-06-10T01:53:47.744Z,1007.84
2017-06-10T01:54:28.209Z,1007.82
2017-06-10T01:55:08.669Z,1007.9
2017-06-10T01:55:49.108Z,1007.86
2017-06-10T01:56:29.576Z,1007.89
2017-06-10T01:57:10.027Z,1007.91
2017-06-10T01:57:50.496Z,1007.91
2017-06-10T01:58:30.908Z,1007.96
2017-06-10T01:59:11.364Z,1007.96
2017-06-10T01:59:51.789Z,1007.99
2017-06-10T02:00:32.235Z,1008
2017-06-10T02:01:12.735Z,1008.02
2017-06-10T02:01:53.206Z,1007.99
2017-06-10T02:03:50.841Z,1008.05
2017-06-10T02:04:31.324Z,1007.98
2017-06-10T02:05:11.799Z,1008.04
2017-06-10T02:05:52.296Z,1008.04
2017-06-10T02:06:32.778Z,1008.02
2017-06-10T02:07:13.277Z,1008.03
2017-06-10T02:07:53.886Z,1008.04
2017-06-10T02:08:34.346Z,1008.09
2017-06-10T02:09:14.822Z,1008.11
2017-06-10T02:09:55.315Z,1008.1
2017-06-10T02:10:36.527Z,1008.11
2017-06-10T02:11:17.063Z,1008.11
2017-06-10T02:11:57.479Z,1008.14
2017-06-10T02:12:38.905Z,1008.12
2017-06-10T02:13:19.381Z,1008.12
2017-06-10T02:13:59.863Z,1008.11
2017-06-10T02:14:40.333Z,1008.1
2017-06-10T02:15:20.803Z,1008.13
2017-06-10T02:16:01.273Z,1008.1
2017-06-10T02:16:42.533Z,1008.1
2017-06-10T02:17:23.018Z,1008.09
2017-06-10T02:18:03.501Z,1008.1
2017-06-10T02:18:43.992Z,1008.11
2017-06-10T02:19:24.505Z,1008.13
2017-06-10T02:20:04.977Z,1008.12
2017-06-10T02:20:45.471Z,1008.19
2017-06-10T02:21:25.969Z,1008.19
2017-06-10T02:22:06.454Z,1008.16
2017-06-10T02:22:46.954Z,1008.21
2017-06-10T02:23:27.425Z,1008.23
2017-06-10T02:24:07.902Z,1008.23
2017-06-10T02:24:48.379Z,1008.21
2017-06-10T02:25:28.854Z,1008.24
2017-06-10T02:26:09.325Z,1008.22
2017-06-10T02:26:49.824Z,1008.19
2017-06-10T02:27:30.295Z,1008.18
2017-06-10T02:28:10.757Z,1008.24
2017-06-10T02:30:29.438Z,1008.23
2017-06-10T02:31:09.921Z,1008.21
2017-06-10T02:31:50.406Z,1008.23
2017-06-10T02:32:30.886Z,1008.22
2017-06-10T02:33:11.381Z,1008.2
2017-06-10T02:33:51.849Z,1008.19
2017-06-10T02:34:32.333Z,1008.21
2017-06-10T02:35:12.816Z,1008.2
2017-06-10T02:35:53.281Z,1008.26
2017-06-10T02:36:33.757Z,1008.25
2017-06-10T02:38:31.393Z,1008.26
2017-06-10T02:39:11.882Z,1008.27
2017-06-10T02:39:52.943Z,1008.24
2017-06-10T02:40:33.408Z,1008.27
2017-06-10T02:41:13.920Z,1008.26
2017-06-10T02:41:54.359Z,1008.31
2017-06-10T02:42:34.819Z,1008.28
2017-06-10T02:43:15.317Z,1008.29
2017-06-10T02:43:55.793Z,1008.32
2017-06-10T02:44:36.290Z,1008.31
2017-06-10T02:45:16.771Z,1008.33
2017-06-10T02:45:57.262Z,1008.29
2017-06-10T02:46:37.708Z,1008.34
2017-06-10T02:47:18.177Z,1008.33
2017-06-10T02:47:58.648Z,1008.34
2017-06-10T02:48:39.085Z,1008.37
2017-06-10T02:50:36.697Z,1008.38
2017-06-10T02:51:17.200Z,1008.36
2017-06-10T02:51:57.696Z,1008.33
2017-06-10T02:52:38.153Z,1008.32
2017-06-10T02:53:18.636Z,1008.36
2017-06-10T02:53:59.124Z,1008.36
2017-06-10T02:54:39.608Z,1008.37
2017-06-10T02:55:20.082Z,1008.4
2017-06-10T02:56:00.560Z,1008.39
2017-06-10T02:56:41.023Z,1008.38
2017-06-10T02:57:21.523Z,1008.41
2017-06-10T02:58:02.017Z,1008.4
2017-06-10T02:58:42.491Z,1008.45
2017-06-10T02:59:22.973Z,1008.42
2017-06-10T03:00:03.441Z,1008.43
2017-06-10T03:00:43.903Z,1008.41
2017-06-10T03:01:24.360Z,1008.46
2017-06-10T03:02:04.822Z,1008.47
2017-06-10T03:02:45.264Z,1008.48
2017-06-10T03:03:25.722Z,1008.48
2017-06-10T03:04:06.156Z,1008.48
2017-06-10T03:04:46.602Z,1008.51
2017-06-10T03:05:27.056Z,1008.51
2017-06-10T03:06:07.497Z,1008.49
2017-06-10T03:06:47.933Z,1008.51
2017-06-10T03:08:40.509Z,1008.55
2017-06-10T03:09:20.983Z,1008.53
2017-06-10T03:10:01.463Z,1008.55
2017-06-10T03:10:41.942Z,1008.57
2017-06-10T03:11:22.437Z,1008.59
2017-06-10T03:12:02.980Z,1008.57
2017-06-10T03:12:43.400Z,1008.58
2017-06-10T03:13:23.902Z,1008.61
2017-06-10T03:14:04.383Z,1008.59
2017-06-10T03:14:44.875Z,1008.6
2017-06-10T03:15:25.366Z,1008.61
2017-06-10T03:16:05.826Z,1008.59
2017-06-10T03:16:46.277Z,1008.6
2017-06-10T03:18:38.866Z,1008.6
2017-06-10T03:19:19.301Z,1008.63
2017-06-10T03:19:59.750Z,1008.66
2017-06-10T03:22:27.651Z,1008.67
2017-06-10T03:23:09.064Z,1008.67
2017-06-10T03:23:49.560Z,1008.68
2017-06-10T03:24:30.026Z,1008.73
2017-06-10T03:25:10.484Z,1008.75
2017-06-10T03:25:50.951Z,1008.74
2017-06-10T03:26:31.394Z,1008.75
2017-06-10T03:27:11.843Z,1008.76
2017-06-10T03:27:52.296Z,1008.78
2017-06-10T03:28:32.768Z,1008.77
2017-06-10T03:29:13.246Z,1008.78
2017-06-10T03:29:53.702Z,1008.78
2017-06-10T03:30:34.979Z,1008.77
2017-06-10T03:31:15.441Z,1008.79
2017-06-10T03:31:55.898Z,1008.78
2017-06-10T03:32:36.342Z,1008.78
2017-06-10T03:33:16.790Z,1008.78
2017-06-10T03:35:44.723Z,1008.79
2017-06-10T03:36:25.190Z,1008.8
2017-06-10T03:37:05.640Z,1008.79
2017-06-10T03:37:46.788Z,1008.82
2017-06-10T03:38:27.269Z,1008.81
2017-06-10T03:39:07.752Z,1008.81
2017-06-10T03:39:48.209Z,1008.83
2017-06-10T03:40:28.690Z,1008.86
2017-06-10T03:41:09.184Z,1008.84
2017-06-10T03:41:49.659Z,1008.8
2017-06-10T03:42:30.097Z,1008.84
2017-06-10T03:43:10.561Z,1008.91
2017-06-10T03:43:51.018Z,1008.86
2017-06-10T03:44:31.478Z,1008.86
2017-06-10T03:45:11.937Z,1008.84
2017-06-10T03:45:52.413Z,1008.88
2017-06-10T03:46:32.894Z,1008.87
2017-06-10T03:47:13.382Z,1008.87
2017-06-10T03:47:53.872Z,1008.85
2017-06-10T03:48:34.340Z,1008.85
2017-06-10T03:49:14.828Z,1008.83
2017-06-10T03:49:55.297Z,1008.83
2017-06-10T03:50:35.742Z,1008.84
2017-06-10T03:51:16.183Z,1008.84
2017-06-10T03:51:56.619Z,1008.87
2017-06-10T03:56:01.877Z,1008.89
2017-06-10T03:56:42.322Z,1008.9
2017-06-10T03:57:22.813Z,1008.9
2017-06-10T03:58:03.310Z,1008.92
2017-06-10T03:58:43.782Z,1008.92
2017-06-10T03:59:24.261Z,1008.94
2017-06-10T04:00:04.714Z,1008.9
2017-06-10T04:00:45.191Z,1008.91
2017-06-10T04:01:25.690Z,1008.91
2017-06-10T04:02:06.163Z,1008.9
2017-06-10T04:02:46.636Z,1008.91
2017-06-10T04:03:27.118Z,1008.95
2017-06-10T04:05:55.074Z,1008.98
2017-06-10T04:06:35.535Z,1008.9
2017-06-10T04:07:16.018Z,1008.97
2017-06-10T04:07:56.479Z,1008.94
2017-06-10T04:08:36.957Z,1008.95
2017-06-10T04:09:17.467Z,1008.97
2017-06-10T04:09:57.945Z,1008.97
2017-06-10T04:10:38.433Z,1008.93
2017-06-10T04:11:18.845Z,1008.96
2017-06-10T04:11:59.300Z,1008.97
2017-06-10T04:12:39.778Z,1008.98
2017-06-10T04:13:20.268Z,1008.95
2017-06-10T04:14:00.759Z,1008.95
2017-06-10T04:14:41.226Z,1008.91
2017-06-10T04:15:21.686Z,1008.95
2017-06-10T04:16:02.127Z,1008.92
2017-06-10T04:16:42.606Z,1008.93
2017-06-10T04:17:23.072Z,1008.91
2017-06-10T04:18:03.549Z,1008.95
2017-06-10T04:18:44.032Z,1008.95
2017-06-10T04:19:24.520Z,1008.96
2017-06-10T04:20:04.996Z,1008.97
2017-06-10T04:20:45.464Z,1008.98
2017-06-10T04:21:25.935Z,1008.98
2017-06-10T04:22:06.369Z,1008.98
2017-06-10T04:22:46.826Z,1009
2017-06-10T04:23:27.298Z,1009.01
2017-06-10T04:24:07.749Z,1008.98
2017-06-10T04:24:48.231Z,1009.02
2017-06-10T04:25:28.714Z,1009
2017-06-10T04:26:09.219Z,1008.96
2017-06-10T04:26:49.697Z,1008.99
2017-06-10T04:27:30.180Z,1009
2017-06-10T04:28:10.644Z,1008.99
2017-06-10T04:28:51.116Z,1009
2017-06-10T04:29:31.581Z,1009.02
2017-06-10T04:30:12.926Z,1009
2017-06-10T04:30:53.370Z,1009.05
2017-06-10T04:31:33.874Z,1009.05
2017-06-10T04:32:14.371Z,1009.04
2017-06-10T04:32:54.850Z,1009.06
2017-06-10T04:33:35.287Z,1009.04
2017-06-10T04:34:15.744Z,1009.06
2017-06-10T04:34:56.206Z,1009.08
2017-06-10T04:35:36.652Z,1009.06
2017-06-10T04:38:04.567Z,1009.13
2017-06-10T04:38:45.032Z,1009.13
2017-06-10T04:39:25.509Z,1009.13
2017-06-10T04:40:05.981Z,1009.16
2017-06-10T04:40:46.495Z,1009.17
2017-06-10T04:41:26.959Z,1009.12
2017-06-10T04:42:07.425Z,1009.16
2017-06-10T04:42:47.896Z,1009.2
2017-06-10T04:43:28.398Z,1009.16
2017-06-10T04:44:08.887Z,1009.15
2017-06-10T04:44:49.363Z,1009.21
2017-06-10T04:45:29.837Z,1009.2
2017-06-10T04:46:10.309Z,1009.24
2017-06-10T04:46:50.752Z,1009.27
2017-06-10T04:47:31.228Z,1009.24
2017-06-10T04:48:11.696Z,1009.26
2017-06-10T04:48:52.141Z,1009.28
2017-06-10T04:49:32.588Z,1009.29
2017-06-10T04:50:13.043Z,1009.3
2017-06-10T04:50:53.521Z,1009.32
2017-06-10T04:52:46.090Z,1009.32
2017-06-10T04:53:26.514Z,1009.33
2017-06-10T04:54:06.977Z,1009.32
2017-06-10T04:54:47.417Z,1009.33
2017-06-10T04:55:27.879Z,1009.3
2017-06-10T04:56:08.337Z,1009.31
2017-06-10T04:56:48.796Z,1009.3
2017-06-10T04:57:29.275Z,1009.3
2017-06-10T04:58:09.757Z,1009.3
2017-06-10T04:58:50.259Z,1009.35
2017-06-10T04:59:30.726Z,1009.37
2017-06-10T05:00:11.213Z,1009.36
2017-06-10T05:00:51.678Z,1009.39
2017-06-10T05:01:32.164Z,1009.44
2017-06-10T05:02:12.658Z,1009.37
2017-06-10T05:02:53.134Z,1009.38
2017-06-10T05:03:33.595Z,1009.42
2017-06-10T05:05:46.328Z,1009.44
2017-06-10T05:06:26.820Z,1009.5
2017-06-10T05:07:07.313Z,1009.52
2017-06-10T05:07:47.793Z,1009.48
2017-06-10T05:08:28.281Z,1009.54
2017-06-10T05:09:08.746Z,1009.52
2017-06-10T05:09:49.195Z,1009.52
2017-06-10T05:10:29.644Z,1009.51
2017-06-10T05:11:10.108Z,1009.48
2017-06-10T05:11:50.566Z,1009.51
2017-06-10T05:12:31.007Z,1009.49
2017-06-10T05:13:11.480Z,1009.5
2017-06-10T05:13:51.948Z,1009.47
2017-06-10T05:14:32.439Z,1009.48
2017-06-10T05:15:12.935Z,1009.48
2017-06-10T05:15:53.415Z,1009.49
2017-06-10T05:16:33.921Z,1009.49
2017-06-10T05:17:14.411Z,1009.53
2017-06-10T05:17:54.880Z,1009.53
2017-06-10T05:18:35.351Z,1009.57
2017-06-10T05:19:15.827Z,1009.58
2017-06-10T05:19:56.306Z,1009.59
2017-06-10T05:20:36.800Z,1009.59
2017-06-10T05:21:17.287Z,1009.56
2017-06-10T05:21:57.770Z,1009.59
2017-06-10T05:22:38.262Z,1009.56
2017-06-10T05:23:18.734Z,1009.55
2017-06-10T05:23:59.183Z,1009.56
2017-06-10T05:24:39.654Z,1009.53
2017-06-10T05:26:37.271Z,1009.58
2017-06-10T05:27:17.780Z,1009.62
2017-06-10T05:27:58.255Z,1009.65
2017-06-10T05:28:38.739Z,1009.67
2017-06-10T05:29:19.242Z,1009.68
2017-06-10T05:29:59.667Z,1009.68
2017-06-10T05:30:40.159Z,1009.7
2017-06-10T05:31:20.649Z,1009.71
2017-06-10T05:32:01.138Z,1009.71
2017-06-10T05:32:41.632Z,1009.74
2017-06-10T05:33:22.133Z,1009.74
2017-06-10T05:34:02.615Z,1009.76
2017-06-10T05:34:43.103Z,1009.75
2017-06-10T05:35:23.564Z,1009.73
2017-06-10T05:36:04.063Z,1009.73
2017-06-10T05:38:25.729Z,1009.79
2017-06-10T05:39:06.352Z,1009.81
2017-06-10T05:39:46.729Z,1009.81
2017-06-10T05:40:27.237Z,1009.79
2017-06-10T05:41:07.705Z,1009.82
2017-06-10T05:41:48.165Z,1009.83
2017-06-10T05:42:28.643Z,1009.83
2017-06-10T05:43:09.082Z,1009.83
2017-06-10T05:43:49.509Z,1009.86
2017-06-10T05:44:29.963Z,1009.87
2017-06-10T05:45:10.381Z,1009.87
2017-06-10T05:45:50.852Z,1009.86
2017-06-10T05:46:31.311Z,1009.86
2017-06-10T05:47:11.753Z,1009.83
2017-06-10T05:47:52.234Z,1009.86
2017-06-10T05:48:32.740Z,1009.87
2017-06-10T05:49:13.200Z,1009.85
2017-06-10T05:49:53.647Z,1009.86
2017-06-10T05:50:34.111Z,1009.89
2017-06-10T05:51:14.515Z,1009.87
2017-06-10T05:51:55.033Z,1009.83
2017-06-10T05:52:35.457Z,1009.85
2017-06-10T05:53:15.940Z,1009.87
2017-06-10T05:55:08.525Z,1009.9
2017-06-10T05:55:49.022Z,1009.9
2017-06-10T05:56:29.497Z,1009.92
2017-06-10T05:57:09.964Z,1009.88
2017-06-10T05:57:50.473Z,1009.91
2017-06-10T05:58:30.964Z,1009.93
2017-06-10T05:59:11.434Z,1009.97
2017-06-10T05:59:51.923Z,1009.94
2017-06-10T06:00:32.394Z,1009.97
2017-06-10T06:01:12.870Z,1009.94
2017-06-10T06:01:53.343Z,1009.93
2017-06-10T06:02:34.691Z,1009.98
2017-06-10T06:03:15.137Z,1010
2017-06-10T06:03:55.588Z,1009.97
2017-06-10T06:04:36.020Z,1009.98
2017-06-10T06:05:16.469Z,1010.01
2017-06-10T06:05:56.924Z,1009.99
2017-06-10T06:08:09.659Z,1010.05
2017-06-10T06:08:50.141Z,1010.06
2017-06-10T06:09:30.602Z,1010.08
2017-06-10T06:10:11.070Z,1010.1
2017-06-10T06:10:51.559Z,1010.12
2017-06-10T06:11:32.049Z,1010.14
2017-06-10T06:12:12.526Z,1010.13
2017-06-10T06:12:52.999Z,1010.11
2017-06-10T06:13:33.468Z,1010.11
2017-06-10T06:14:13.951Z,1010.05
2017-06-10T06:14:54.387Z,1010.03
2017-06-10T06:16:52.036Z,1010.12
2017-06-10T06:17:32.517Z,1010.1
2017-06-10T06:18:12.992Z,1010.18
2017-06-10T06:18:53.478Z,1010.16
2017-06-10T06:19:33.979Z,1010.12
2017-06-10T06:20:14.473Z,1010.11
2017-06-10T06:20:54.974Z,1010.11
2017-06-10T06:21:35.456Z,1010.08
2017-06-10T06:22:15.920Z,1010.11
2017-06-10T06:22:56.416Z,1010.11
2017-06-10T06:23:36.933Z,1010.23
2017-06-10T06:24:17.416Z,1010.16
2017-06-10T06:24:57.914Z,1010.18
2017-06-10T06:25:38.381Z,1010.18
2017-06-10T06:26:18.865Z,1010.19
2017-06-10T06:26:59.372Z,1010.17
2017-06-10T06:27:39.867Z,1010.2
2017-06-10T06:28:20.363Z,1010.18
2017-06-10T06:29:00.811Z,1010.19
2017-06-10T06:29:41.293Z,1010.24
2017-06-10T06:30:21.776Z,1010.21
2017-06-10T06:31:02.244Z,1010.2
2017-06-10T06:31:42.695Z,1010.22
2017-06-10T06:32:23.162Z,1010.25
2017-06-10T06:34:41.005Z,1010.28
2017-06-10T06:35:21.453Z,1010.34
2017-06-10T06:36:01.885Z,1010.33
2017-06-10T06:36:42.347Z,1010.33
2017-06-10T06:37:22.803Z,1010.35
2017-06-10T06:38:03.258Z,1010.38
2017-06-10T06:38:44.515Z,1010.37
2017-06-10T06:39:24.973Z,1010.41
2017-06-10T06:40:05.429Z,1010.43
2017-06-10T06:42:18.137Z,1010.4
2017-06-10T06:42:58.644Z,1010.38
2017-06-10T06:43:39.108Z,1010.36
2017-06-10T06:44:19.622Z,1010.33
2017-06-10T06:45:00.096Z,1010.33
2017-06-10T06:45:40.562Z,1010.33
2017-06-10T06:46:21.039Z,1010.36
2017-06-10T06:47:01.525Z,1010.35
2017-06-10T06:47:41.991Z,1010.32
2017-06-10T06:48:22.474Z,1010.32
2017-06-10T06:49:02.955Z,1010.36
2017-06-10T06:49:43.412Z,1010.37
2017-06-10T06:50:23.904Z,1010.36
2017-06-10T06:51:04.373Z,1010.35
2017-06-10T06:51:44.820Z,1010.34
2017-06-10T06:52:25.298Z,1010.34
2017-06-10T06:53:05.737Z,1010.35
2017-06-10T06:53:46.190Z,1010.38
2017-06-10T06:54:26.671Z,1010.36
2017-06-10T06:55:07.128Z,1010.36
2017-06-10T06:55:47.634Z,1010.36
2017-06-10T06:56:28.115Z,1010.39
2017-06-10T06:57:08.608Z,1010.39
2017-06-10T06:57:49.056Z,1010.4
2017-06-10T06:58:29.531Z,1010.4
2017-06-10T06:59:10.037Z,1010.39
2017-06-10T06:59:50.514Z,1010.4
2017-06-10T07:00:30.990Z,1010.41
2017-06-10T07:01:11.465Z,1010.41
2017-06-10T07:01:51.925Z,1010.45
2017-06-10T07:02:32.376Z,1010.44
2017-06-10T07:03:12.839Z,1010.43
2017-06-10T07:03:53.276Z,1010.53
2017-06-10T07:04:33.705Z,1010.48
2017-06-10T07:05:14.169Z,1010.43
2017-06-10T07:05:54.654Z,1010.44
2017-06-10T07:06:35.118Z,1010.45
2017-06-10T07:07:15.630Z,1010.49
2017-06-10T07:07:56.092Z,1010.49
2017-06-10T07:08:37.144Z,1010.54
2017-06-10T07:10:29.734Z,1010.57
2017-06-10T07:11:10.771Z,1010.57
2017-06-10T07:11:51.260Z,1010.53
2017-06-10T07:12:31.749Z,1010.55
2017-06-10T07:13:12.204Z,1010.62
2017-06-10T07:13:52.686Z,1010.63
2017-06-10T07:14:33.977Z,1010.61
2017-06-10T07:15:14.452Z,1010.63
2017-06-10T07:15:54.935Z,1010.62
2017-06-10T07:16:35.420Z,1010.47
2017-06-10T07:17:15.911Z,1010.52
2017-06-10T07:17:56.402Z,1010.57
2017-06-10T07:18:36.867Z,1010.56
2017-06-10T07:19:17.331Z,1010.59
2017-06-10T07:19:57.793Z,1010.61
2017-06-10T07:20:38.252Z,1010.57
2017-06-10T07:21:18.691Z,1010.6
2017-06-10T07:21:59.158Z,1010.62
2017-06-10T07:22:39.637Z,1010.57
2017-06-10T07:23:20.103Z,1010.61
2017-06-10T07:24:00.574Z,1010.6
2017-06-10T07:26:13.371Z,1010.68
2017-06-10T07:26:53.866Z,1010.65
2017-06-10T07:27:34.344Z,1010.68
2017-06-10T07:28:14.824Z,1010.64
2017-06-10T07:28:55.311Z,1010.66
2017-06-10T07:29:35.798Z,1010.67
2017-06-10T07:30:16.292Z,1010.69
2017-06-10T07:30:56.791Z,1010.68
2017-06-10T07:31:37.283Z,1010.66
2017-06-10T07:32:17.769Z,1010.63
2017-06-10T07:32:59.037Z,1010.67
2017-06-10T07:33:39.563Z,1010.67
2017-06-10T07:34:20.075Z,1010.7
2017-06-10T07:35:00.555Z,1010.64
2017-06-10T07:35:41.015Z,1010.63
2017-06-10T07:36:21.489Z,1010.64
2017-06-10T07:37:01.986Z,1010.61
2017-06-10T07:37:42.457Z,1010.64
2017-06-10T07:38:23.015Z,1010.62
2017-06-10T07:39:03.421Z,1010.61
2017-06-10T07:39:43.909Z,1010.61
2017-06-10T07:40:24.390Z,1010.6
2017-06-10T07:41:04.933Z,1010.65
2017-06-10T07:41:45.388Z,1010.63
2017-06-10T07:42:25.889Z,1010.66
2017-06-10T07:43:06.373Z,1010.65
2017-06-10T07:43:46.865Z,1010.71
2017-06-10T07:44:27.364Z,1010.64
2017-06-10T07:45:07.833Z,1010.62
2017-06-10T07:45:48.352Z,1010.63
2017-06-10T07:46:28.911Z,1010.66
2017-06-10T07:47:09.361Z,1010.67
2017-06-10T07:47:49.881Z,1010.68
2017-06-10T07:48:30.377Z,1010.68
2017-06-10T07:49:10.862Z,1010.7
2017-06-10T07:49:51.369Z,1010.7
2017-06-10T07:50:31.863Z,1010.72
2017-06-10T07:51:12.411Z,1010.72
2017-06-10T07:51:52.849Z,1010.7
2017-06-10T07:52:33.356Z,1010.69
2017-06-10T07:53:13.833Z,1010.7
2017-06-10T07:53:54.337Z,1010.7
2017-06-10T07:54:34.835Z,1010.68
2017-06-10T07:55:15.326Z,1010.71
2017-06-10T07:55:55.826Z,1010.72
2017-06-10T07:56:36.291Z,1010.7
2017-06-10T07:57:16.797Z,1010.74
2017-06-10T07:57:57.301Z,1010.72
2017-06-10T07:58:37.783Z,1010.72
2017-06-10T07:59:18.278Z,1010.74
2017-06-10T07:59:58.779Z,1010.73
2017-06-10T08:00:39.283Z,1010.73
2017-06-10T08:01:19.760Z,1010.74
2017-06-10T08:02:00.258Z,1010.76
2017-06-10T08:02:40.756Z,1010.81
2017-06-10T08:03:21.246Z,1010.77
2017-06-10T08:04:01.734Z,1010.76
2017-06-10T08:04:42.245Z,1010.77
2017-06-10T08:05:22.714Z,1010.75
2017-06-10T08:06:03.233Z,1010.76
2017-06-10T08:06:43.739Z,1010.8
2017-06-10T08:07:24.231Z,1010.83
2017-06-10T08:08:04.710Z,1010.83
2017-06-10T08:08:45.757Z,1010.82
2017-06-10T08:09:26.245Z,1010.84
2017-06-10T08:10:06.755Z,1010.82
2017-06-10T08:10:47.237Z,1010.83
2017-06-10T08:11:27.702Z,1010.8
2017-06-10T08:12:08.167Z,1010.85
2017-06-10T08:12:48.611Z,1010.87
2017-06-10T08:13:29.753Z,1010.87
2017-06-10T08:14:10.206Z,1010.88
2017-06-10T08:14:50.709Z,1010.86
2017-06-10T08:17:18.688Z,1010.94
2017-06-10T08:17:59.166Z,1011.01
2017-06-10T08:18:39.642Z,1010.93
2017-06-10T08:19:20.079Z,1010.93
2017-06-10T08:20:00.526Z,1010.93
2017-06-10T08:20:41.002Z,1010.94
2017-06-10T08:21:21.471Z,1010.96
2017-06-10T08:22:01.920Z,1010.94
2017-06-10T08:22:42.378Z,1010.93
2017-06-10T08:23:22.849Z,1010.96
2017-06-10T08:24:03.347Z,1010.97
2017-06-10T08:24:43.832Z,1010.98
2017-06-10T08:25:24.326Z,1011
2017-06-10T08:26:04.838Z,1010.98
2017-06-10T08:26:45.294Z,1011.01
2017-06-10T08:27:25.741Z,1011
2017-06-10T08:28:06.207Z,1011.03
2017-06-10T08:30:18.938Z,1011.04
2017-06-10T08:30:59.443Z,1011.06
2017-06-10T08:31:39.879Z,1011.02
2017-06-10T08:32:20.378Z,1011.03
2017-06-10T08:33:00.858Z,1011.03
2017-06-10T08:33:41.352Z,1011
2017-06-10T08:34:21.836Z,1011
2017-06-10T08:35:02.310Z,1011.03
2017-06-10T08:35:42.770Z,1011.02
2017-06-10T08:36:23.268Z,1011.05
2017-06-10T08:37:04.627Z,1011.05
2017-06-10T08:39:17.348Z,1011.01
2017-06-10T08:39:57.868Z,1011.05
2017-06-10T08:40:39.236Z,1011.04
2017-06-10T08:41:19.687Z,1011.09
2017-06-10T08:42:00.170Z,1011.13
2017-06-10T08:42:40.601Z,1011.11
2017-06-10T08:45:08.527Z,1011.15
2017-06-10T08:45:49.037Z,1011.15
2017-06-10T08:46:29.530Z,1011.17
2017-06-10T08:47:09.990Z,1011.19
2017-06-10T08:47:50.465Z,1011.21
2017-06-10T08:48:30.933Z,1011.24
2017-06-10T08:49:11.406Z,1011.25
2017-06-10T08:49:51.870Z,1011.23
2017-06-10T08:50:32.338Z,1011.25
2017-06-10T08:51:12.835Z,1011.31
2017-06-10T08:51:53.293Z,1011.28
2017-06-10T08:52:33.755Z,1011.37
2017-06-10T08:53:14.228Z,1011.39
2017-06-10T08:53:54.651Z,1011.38
2017-06-10T08:54:35.096Z,1011.4
2017-06-10T08:55:15.580Z,1011.46
2017-06-10T08:55:56.062Z,1011.47
2017-06-10T08:56:36.554Z,1011.41
2017-06-10T08:57:17.024Z,1011.5
2017-06-10T08:57:57.516Z,1011.58
2017-06-10T08:58:37.978Z,1011.67
2017-06-10T08:59:18.455Z,1011.75
2017-06-10T08:59:58.885Z,1011.77
2017-06-10T09:02:11.631Z,1011.71
2017-06-10T09:02:52.121Z,1011.81
2017-06-10T09:03:32.673Z,1011.82
2017-06-10T09:04:13.088Z,1011.73
2017-06-10T09:04:53.601Z,1011.37
2017-06-10T09:05:34.093Z,1011.41
2017-06-10T09:06:14.595Z,1011.5
2017-06-10T09:06:55.092Z,1011.42
2017-06-10T09:07:35.565Z,1011.44
2017-06-10T09:08:16.070Z,1011.43
2017-06-10T09:08:56.541Z,1011.45
2017-06-10T09:09:37.047Z,1011.5
2017-06-10T09:10:17.511Z,1011.3